Time;durP1;ratioP1;P1;durP2;ratioP2;P2;SDS_P1;SDS_P2;PMS_P1;PMS_P2;Temp;Humidity;BMP_temperature;BMP_pressure;BME280_temperature;BME280_humidity;BME280_pressure;Samples;Min_cycle;Max_cycle;Signal;HPM_P1;HPM_P2
2022/01/17 00:00:53;;;;;;;130.75;39.72;;;;;;;4.86;100.00;103090.03;4995966;28;20021;-45
2022/01/17 00:03:24;;;;;;;134.15;41.17;;;;;;;4.85;100.00;103098.94;4998717;28;20491;-46
2022/01/17 00:05:52;;;;;;;129.40;38.53;;;;;;;4.89;100.00;103102.31;5001743;28;20755;-49
2022/01/17 00:08:18;;;;;;;113.78;36.22;;;;;;;4.90;100.00;103106.66;5001484;28;20492;-46
2022/01/17 00:10:43;;;;;;;118.28;35.85;;;;;;;4.89;100.00;103106.72;5001404;28;20030;-44
2022/01/17 00:13:13;;;;;;;105.50;35.22;;;;;;;4.86;100.00;103105.06;5000285;28;20531;-49
2022/01/17 00:15:50;;;;;;;109.93;35.42;;;;;;;4.86;100.00;103108.56;5017146;28;20108;-46
2022/01/17 00:20:45;;;;;;;105.82;35.40;;;;;;;4.87;100.00;103114.72;5020924;28;20041;-45
2022/01/17 00:23:11;;;;;;;104.45;33.92;;;;;;;4.86;100.00;103116.53;5020308;28;20060;-45
2022/01/17 00:25:36;;;;;;;97.15;32.55;;;;;;;4.87;100.00;103109.44;5021106;28;20057;-44
2022/01/17 00:28:02;;;;;;;121.43;35.65;;;;;;;4.88;100.00;103105.00;5019629;28;20049;-48
2022/01/17 00:30:27;;;;;;;97.90;31.70;;;;;;;4.89;100.00;103104.06;5019874;28;20037;-47
2022/01/17 00:32:52;;;;;;;104.88;33.35;;;;;;;4.87;100.00;103104.13;5020845;28;20083;-48
2022/01/17 00:35:17;;;;;;;104.32;34.10;;;;;;;4.84;100.00;103096.34;5020291;28;20408;-45
2022/01/17 00:37:43;;;;;;;126.68;35.88;;;;;;;4.80;100.00;103100.03;5020547;28;20078;-47
2022/01/17 00:40:09;;;;;;;109.53;38.40;;;;;;;4.83;100.00;103106.06;5020808;28;20345;-48
2022/01/17 00:42:35;;;;;;;101.75;34.60;;;;;;;4.82;100.00;103107.00;5020276;28;20504;-47
2022/01/17 00:45:02;;;;;;;116.07;35.55;;;;;;;4.83;100.00;103108.72;5019957;28;20029;-49
2022/01/17 00:47:28;;;;;;;105.72;34.95;;;;;;;4.85;100.00;103113.94;5018982;28;20077;-44
2022/01/17 00:49:53;;;;;;;103.88;35.55;;;;;;;4.85;100.00;103113.94;5020991;28;20060;-44
2022/01/17 00:52:18;;;;;;;109.43;34.28;;;;;;;4.88;100.00;103110.31;5021020;28;20063;-46
2022/01/17 00:54:44;;;;;;;111.72;35.85;;;;;;;4.87;100.00;103106.78;5020561;28;20044;-46
2022/01/17 00:57:10;;;;;;;96.65;35.05;;;;;;;4.88;100.00;103118.25;5020209;28;20025;-49
2022/01/17 00:59:36;;;;;;;95.38;31.83;;;;;;;4.86;100.00;103119.16;5019207;28;20033;-45
2022/01/17 01:02:01;;;;;;;93.95;29.48;;;;;;;4.89;100.00;103114.66;5019677;28;20063;-45
2022/01/17 01:04:27;;;;;;;80.85;25.52;;;;;;;4.90;100.00;103114.59;5020654;28;20379;-44
2022/01/17 01:06:52;;;;;;;79.22;26.63;;;;;;;4.91;100.00;103112.81;5020788;28;20351;-45
2022/01/17 01:09:17;;;;;;;73.90;24.00;;;;;;;4.92;100.00;103123.34;5002993;28;20124;-48
2022/01/17 01:11:42;;;;;;;61.10;22.65;;;;;;;4.93;100.00;103130.34;5019716;28;20086;-45
2022/01/17 01:14:08;;;;;;;72.72;23.67;;;;;;;4.97;100.00;103136.38;5017365;28;20026;-46
2022/01/17 01:16:35;;;;;;;71.70;24.13;;;;;;;4.98;100.00;103130.16;5019302;28;20518;-49
2022/01/17 01:29:45;;;;;;;107.05;27.95;;;;;;;4.99;100.00;103115.97;5017759;28;20118;-44
2022/01/17 01:32:12;;;;;;;65.28;23.05;;;;;;;5.00;100.00;103115.91;5019380;28;20063;-44
2022/01/17 01:34:42;;;;;;;59.72;21.35;;;;;;;5.01;100.00;103114.97;5019681;28;20461;-45
2022/01/17 01:37:07;;;;;;;69.97;24.95;;;;;;;5.01;100.00;103119.44;5020216;28;20051;-44
2022/01/17 01:39:34;;;;;;;77.68;25.80;;;;;;;4.99;100.00;103123.91;5018534;28;20026;-45
2022/01/17 01:42:00;;;;;;;67.00;22.52;;;;;;;4.96;100.00;103132.03;5019086;28;20082;-47
2022/01/17 01:44:27;;;;;;;59.95;22.83;;;;;;;4.91;100.00;103140.16;5018456;28;20041;-45
2022/01/17 01:46:54;;;;;;;69.20;22.83;;;;;;;4.78;100.00;103142.47;5019551;28;20124;-47
2022/01/17 01:49:21;;;;;;;63.75;22.10;;;;;;;4.67;100.00;103142.94;5020051;28;20025;-45
2022/01/17 01:51:47;;;;;;;72.72;24.23;;;;;;;4.57;100.00;103136.31;5018022;28;20338;-47
2022/01/17 01:54:14;;;;;;;67.15;23.67;;;;;;;4.50;100.00;103124.28;5019464;28;20044;-45
2022/01/17 01:56:43;;;;;;;85.43;22.83;;;;;;;4.43;100.00;103125.44;5018896;28;20124;-47
2022/01/17 01:59:10;;;;;;;68.72;22.33;;;;;;;4.34;100.00;103134.63;5018251;28;20512;-44
2022/01/17 02:01:36;;;;;;;85.70;23.92;;;;;;;4.29;100.00;103141.91;5017421;28;20496;-44
2022/01/17 02:04:03;;;;;;;65.05;21.05;;;;;;;4.22;100.00;103143.09;4999329;28;20021;-44
2022/01/17 02:06:28;;;;;;;74.22;21.58;;;;;;;4.14;100.00;103142.53;5017854;28;20034;-50
2022/01/17 02:08:53;;;;;;;76.90;19.02;;;;;;;4.07;100.00;103141.91;5017860;28;20661;-45
2022/01/17 02:11:19;;;;;;;74.85;19.42;;;;;;;4.06;100.00;103140.22;5018111;28;20045;-46
2022/01/17 02:13:46;;;;;;;54.28;17.65;;;;;;;4.03;100.00;103140.34;5016059;28;20529;-45
2022/01/17 02:16:14;;;;;;;59.38;17.90;;;;;;;3.97;100.00;103143.22;5016347;28;20048;-46
2022/01/17 02:18:42;;;;;;;61.15;18.40;;;;;;;3.93;100.00;103148.59;5016383;28;20029;-44
2022/01/17 02:23:39;;;;;;;60.30;16.60;;;;;;;3.82;100.00;103142.91;5018260;28;20116;-45
2022/01/17 02:26:05;;;;;;;54.53;16.73;;;;;;;3.77;100.00;103139.59;5017096;28;20148;-45
2022/01/17 02:28:33;;;;;;;57.00;16.48;;;;;;;3.73;100.00;103132.69;5015997;28;20046;-45
2022/01/17 02:31:00;;;;;;;47.45;16.30;;;;;;;3.65;100.00;103135.63;5017872;28;20047;-46
2022/01/17 02:33:25;;;;;;;54.08;15.55;;;;;;;3.61;100.00;103144.59;5016843;28;20021;-45
2022/01/17 02:35:51;;;;;;;67.20;19.17;;;;;;;3.57;100.00;103145.63;5018736;28;20052;-49
2022/01/17 02:38:16;;;;;;;52.22;15.85;;;;;;;3.56;100.00;103143.91;5017672;28;20029;-47
2022/01/17 02:40:42;;;;;;;55.47;17.23;;;;;;;3.53;100.00;103136.09;5018012;28;20464;-46
2022/01/17 02:43:08;;;;;;;55.45;13.93;;;;;;;3.48;100.00;103135.41;5018059;28;20026;-45
2022/01/17 02:48:19;;;;;;;44.88;11.65;;;;;;;3.40;100.00;103145.41;5015891;28;20120;-44
2022/01/17 02:50:45;;;;;;;45.08;12.27;;;;;;;3.33;100.00;103140.34;4998996;28;20060;-46
2022/01/17 02:53:12;;;;;;;47.63;12.35;;;;;;;3.29;100.00;103151.97;5017939;28;20532;-44
2022/01/17 02:55:39;;;;;;;49.78;10.93;;;;;;;3.26;100.00;103156.47;5018255;28;20018;-45
2022/01/17 02:58:06;;;;;;;35.10;10.25;;;;;;;3.24;100.00;103150.41;5017102;28;20032;-44
2022/01/17 03:00:31;;;;;;;38.28;10.60;;;;;;;3.23;100.00;103156.59;5016131;28;20472;-44
2022/01/17 03:02:56;;;;;;;37.22;9.70;;;;;;;3.19;100.00;103155.84;5017355;28;20620;-48
2022/01/17 03:05:22;;;;;;;38.38;10.48;;;;;;;3.16;100.00;103150.69;5018034;28;20021;-44
2022/01/17 03:07:49;;;;;;;43.75;10.80;;;;;;;3.12;100.00;103149.06;5017740;28;20081;-46
2022/01/17 03:10:39;;;;;;;37.08;9.73;;;;;;;3.05;100.00;103147.56;5017204;28;20033;-48
2022/01/17 03:13:12;;;;;;;44.50;9.52;;;;;;;2.97;100.00;103145.19;5017946;28;20029;-44
2022/01/17 03:15:39;;;;;;;36.08;9.52;;;;;;;2.97;100.00;103140.78;5016392;28;20033;-45
2022/01/17 03:18:05;;;;;;;39.78;9.60;;;;;;;2.95;100.00;103121.50;5016593;28;20045;-47
2022/01/17 03:20:31;;;;;;;37.08;10.00;;;;;;;2.94;100.00;103118.94;5017105;28;20162;-46
2022/01/17 03:22:57;;;;;;;40.80;11.43;;;;;;;2.88;100.00;103129.69;5016222;28;20082;-46
2022/01/17 03:25:23;;;;;;;51.63;14.60;;;;;;;2.86;100.00;103132.38;5016759;28;20033;-47
2022/01/17 03:27:48;;;;;;;65.55;17.85;;;;;;;2.86;100.00;103137.66;5015868;28;20029;-48
2022/01/17 03:30:14;;;;;;;53.90;17.17;;;;;;;2.86;100.00;103139.44;5015005;28;20057;-44
2022/01/17 03:32:39;;;;;;;55.47;14.25;;;;;;;2.90;100.00;103141.94;5016469;28;20418;-46
2022/01/17 03:35:05;;;;;;;49.25;13.18;;;;;;;2.88;100.00;103156.09;5017907;28;20463;-44
2022/01/17 03:37:30;;;;;;;49.97;13.40;;;;;;;2.88;100.00;103149.03;5017039;28;20190;-47
2022/01/17 03:39:56;;;;;;;48.30;13.85;;;;;;;2.88;100.00;103145.53;5017756;28;20029;-46
2022/01/17 03:42:24;;;;;;;47.45;14.27;;;;;;;2.86;100.00;103147.38;5015569;28;20152;-45
2022/01/17 03:44:50;;;;;;;55.25;14.75;;;;;;;2.85;100.00;103148.28;5017116;28;20421;-46
2022/01/17 03:47:15;;;;;;;52.95;13.95;;;;;;;2.80;100.00;103148.41;5016919;28;20026;-45
2022/01/17 03:49:40;;;;;;;47.13;13.98;;;;;;;2.74;100.00;103133.69;5017306;28;20098;-44
2022/01/17 03:52:06;;;;;;;47.17;14.02;;;;;;;2.72;100.00;103140.78;5017353;28;20108;-44
2022/01/17 03:54:31;;;;;;;47.53;13.40;;;;;;;2.68;100.00;103139.19;5016993;28;20034;-43
2022/01/17 03:56:58;;;;;;;59.88;14.65;;;;;;;2.73;100.00;103139.88;5016126;28;20096;-46
2022/01/17 03:59:23;;;;;;;50.80;13.50;;;;;;;2.69;100.00;103140.03;5017054;28;20079;-47
2022/01/17 04:01:49;;;;;;;62.42;14.80;;;;;;;2.72;100.00;103143.44;5017021;28;20032;-43
2022/01/17 04:04:14;;;;;;;39.80;13.38;;;;;;;2.72;100.00;103151.34;5017204;28;20043;-48
2022/01/17 04:06:40;;;;;;;50.53;13.48;;;;;;;2.66;100.00;103141.00;5017013;28;20481;-44
2022/01/17 04:09:05;;;;;;;61.20;16.15;;;;;;;2.75;100.00;103145.97;5016972;28;20064;-45
2022/01/17 04:11:30;;;;;;;53.90;13.98;;;;;;;2.82;100.00;103148.38;5016611;28;20032;-44
2022/01/17 04:13:56;;;;;;;44.65;13.32;;;;;;;2.87;100.00;103146.44;5016645;28;20029;-46
2022/01/17 04:16:21;;;;;;;45.33;12.50;;;;;;;2.90;100.00;103144.56;5017558;28;20080;-45
2022/01/17 04:18:46;;;;;;;50.10;12.90;;;;;;;2.90;100.00;103143.69;5016487;28;20029;-44
2022/01/17 04:21:12;;;;;;;41.97;12.02;;;;;;;2.87;100.00;103149.06;5015954;28;20132;-46
2022/01/17 04:23:37;;;;;;;54.08;11.50;;;;;;;2.81;100.00;103158.06;5017095;28;20037;-45
2022/01/17 04:26:03;;;;;;;44.65;11.10;;;;;;;2.77;100.00;103153.84;5017182;28;20056;-44
2022/01/17 04:28:28;;;;;;;34.35;10.93;;;;;;;2.71;100.00;103159.31;5015801;28;20075;-44
2022/01/17 04:30:53;;;;;;;33.63;10.02;;;;;;;2.70;100.00;103163.72;5017001;28;20384;-47
2022/01/17 04:33:19;;;;;;;37.05;10.25;;;;;;;2.70;100.00;103154.94;5016500;28;20337;-44
2022/01/17 04:35:44;;;;;;;31.55;9.13;;;;;;;2.69;100.00;103153.22;4998431;28;20396;-43
2022/01/17 04:38:16;;;;;;;39.05;9.98;;;;;;;2.66;100.00;103155.97;5016927;28;20458;-45
2022/01/17 04:40:45;;;;;;;51.15;10.38;;;;;;;2.63;100.00;103156.94;5016964;28;20384;-45
2022/01/17 04:43:44;;;;;;;38.25;9.18;;;;;;;2.61;100.00;103158.75;5015372;28;20104;-47
2022/01/17 04:46:10;;;;;;;46.38;10.52;;;;;;;2.58;100.00;103161.50;5016716;28;20038;-44
2022/01/17 04:48:36;;;;;;;39.92;9.63;;;;;;;2.58;100.00;103149.19;5016467;28;20472;-44
2022/01/17 04:51:03;;;;;;;39.13;9.18;;;;;;;2.58;100.00;103145.66;5018724;28;20056;-45
2022/01/17 04:53:29;;;;;;;32.47;9.88;;;;;;;2.58;100.00;103161.50;5018214;28;20409;-45
2022/01/17 04:55:55;;;;;;;39.28;9.52;;;;;;;2.57;100.00;103170.34;5019993;28;20018;-46
2022/01/17 04:58:21;;;;;;;39.90;8.98;;;;;;;2.53;100.00;103163.41;5019415;28;20029;-45
2022/01/17 05:00:47;;;;;;;49.38;9.93;;;;;;;2.50;100.00;103167.03;5020323;28;20075;-46
2022/01/17 05:03:17;;;;;;;36.28;9.45;;;;;;;2.52;100.00;103170.47;5019666;28;20021;-47
2022/01/17 05:05:43;;;;;;;39.05;9.65;;;;;;;2.51;100.00;103179.31;5019963;28;20448;-46
2022/01/17 05:08:08;;;;;;;31.60;8.48;;;;;;;2.52;100.00;103180.19;5020190;28;20029;-47
2022/01/17 05:10:34;;;;;;;45.60;9.48;;;;;;;2.52;100.00;103186.31;5019953;28;20037;-45
2022/01/17 05:12:59;;;;;;;24.75;8.05;;;;;;;2.53;100.00;103185.41;5019436;28;20029;-45
2022/01/17 05:20:39;;;;;;;30.52;8.20;;;;;;;2.61;100.00;103182.50;5020283;28;20527;-49
2022/01/17 05:23:05;;;;;;;38.08;8.40;;;;;;;2.60;100.00;103179.00;5002209;28;20037;-45
2022/01/17 05:25:30;;;;;;;30.65;7.75;;;;;;;2.61;100.00;103187.78;5018905;28;20553;-46
2022/01/17 05:27:56;;;;;;;27.27;8.13;;;;;;;2.60;100.00;103188.69;5018187;28;20040;-46
2022/01/17 05:30:23;;;;;;;34.47;7.80;;;;;;;2.53;100.00;103181.88;5020099;28;20113;-45
2022/01/17 05:32:51;;;;;;;28.25;7.72;;;;;;;2.49;100.00;103190.81;5019330;28;20068;-46
2022/01/17 05:35:17;;;;;;;33.35;7.90;;;;;;;2.43;100.00;103195.38;5019749;28;20502;-47
2022/01/17 05:37:43;;;;;;;44.95;8.95;;;;;;;2.42;100.00;103203.34;5018331;28;20083;-46
2022/01/17 05:40:11;;;;;;;31.13;8.55;;;;;;;2.43;100.00;103205.94;5020307;28;20017;-45
2022/01/17 05:42:36;;;;;;;41.83;10.07;;;;;;;2.45;100.00;103205.88;5019442;28;20484;-50
2022/01/17 05:45:03;;;;;;;36.65;9.85;;;;;;;2.48;100.00;103208.44;5019105;28;20079;-45
2022/01/17 05:47:29;;;;;;;41.17;9.48;;;;;;;2.48;100.00;103200.53;5018914;28;20037;-45
2022/01/17 05:49:54;;;;;;;40.78;10.80;;;;;;;2.48;100.00;103194.38;5018782;28;20525;-46
2022/01/17 05:52:20;;;;;;;30.23;8.65;;;;;;;2.44;100.00;103196.25;5019315;28;20326;-50
2022/01/17 05:54:45;;;;;;;32.83;9.95;;;;;;;2.47;100.00;103196.16;5019206;28;20026;-45
2022/01/17 05:57:11;;;;;;;40.03;11.23;;;;;;;2.54;100.00;103187.13;5019084;28;20035;-48
2022/01/17 05:59:36;;;;;;;48.53;11.10;;;;;;;2.56;100.00;103187.94;5018613;28;20365;-46
2022/01/17 06:02:02;;;;;;;56.75;15.63;;;;;;;2.65;100.00;103197.31;5018164;28;20049;-46
2022/01/17 06:04:27;;;;;;;59.45;15.70;;;;;;;2.71;100.00;103206.81;5019250;28;20570;-46
2022/01/17 06:06:52;;;;;;;60.05;15.10;;;;;;;2.81;100.00;103205.56;5019286;28;20113;-49
2022/01/17 06:09:18;;;;;;;51.90;15.60;;;;;;;2.84;100.00;103194.91;5019189;28;20026;-46
2022/01/17 06:11:43;;;;;;;64.88;17.83;;;;;;;2.88;100.00;103199.16;5018536;28;20037;-46
2022/01/17 06:14:10;;;;;;;60.05;15.65;;;;;;;2.90;100.00;103199.13;5018080;28;20095;-48
2022/01/17 06:16:36;;;;;;;54.83;16.38;;;;;;;2.88;100.00;103198.31;5000327;28;20028;-45
2022/01/17 06:19:02;;;;;;;55.35;16.40;;;;;;;2.84;100.00;103196.72;5018559;28;20029;-45
2022/01/17 06:21:28;;;;;;;64.03;18.25;;;;;;;2.87;100.00;103189.53;5000912;28;20515;-44
2022/01/17 06:23:53;;;;;;;62.58;18.38;;;;;;;2.88;100.00;103191.25;5018891;28;20045;-46
2022/01/17 06:26:20;;;;;;;57.83;17.48;;;;;;;2.83;100.00;103205.53;5018502;28;20470;-45
2022/01/17 06:28:46;;;;;;;69.82;19.58;;;;;;;2.78;100.00;103218.88;5016334;28;20148;-46
2022/01/17 06:31:11;;;;;;;70.18;19.80;;;;;;;2.79;100.00;103225.88;5017605;28;20377;-46
2022/01/17 06:33:37;;;;;;;65.35;17.65;;;;;;;2.78;100.00;103224.16;5017923;28;20022;-45
2022/01/17 06:36:02;;;;;;;62.90;19.40;;;;;;;2.75;100.00;103225.13;5018526;28;20076;-45
2022/01/17 06:38:28;;;;;;;60.10;18.45;;;;;;;2.76;100.00;103226.84;5006093;28;20037;-46
2022/01/17 06:40:53;;;;;;;68.25;18.08;;;;;;;2.81;100.00;103216.13;5000035;28;20022;-44
2022/01/17 06:43:18;;;;;;;59.78;17.23;;;;;;;2.82;100.00;103216.97;4997922;28;20405;-47
2022/01/17 06:45:45;;;;;;;53.65;17.10;;;;;;;2.79;100.00;103221.47;4998632;28;20033;-47
2022/01/17 06:48:11;;;;;;;64.50;18.92;;;;;;;2.80;100.00;103212.63;4998138;28;20021;-47
2022/01/17 06:50:36;;;;;;;60.45;16.98;;;;;;;2.85;100.00;103215.13;5007897;28;20037;-45
2022/01/17 06:53:02;;;;;;;60.03;17.25;;;;;;;2.88;100.00;103224.69;5004953;28;20025;-44
2022/01/17 06:55:27;;;;;;;52.95;16.85;;;;;;;2.83;100.00;103231.91;5006601;28;20401;-44
2022/01/17 06:57:52;;;;;;;66.05;19.08;;;;;;;2.82;100.00;103240.72;4997225;28;20149;-45
2022/01/17 07:00:18;;;;;;;63.05;16.48;;;;;;;2.80;100.00;103246.06;4998348;28;20025;-44
2022/01/17 07:02:43;;;;;;;57.55;16.88;;;;;;;2.78;100.00;103245.25;4996619;28;20022;-45
2022/01/17 07:05:09;;;;;;;56.88;16.75;;;;;;;2.75;100.00;103251.50;5007233;28;20021;-44
2022/01/17 07:07:34;;;;;;;54.88;16.33;;;;;;;2.75;100.00;103248.88;5016407;28;20102;-43
2022/01/17 07:09:59;;;;;;;57.22;18.50;;;;;;;2.76;100.00;103270.84;5017018;28;20180;-46
2022/01/17 07:12:24;;;;;;;60.20;18.27;;;;;;;2.73;100.00;103248.06;5016749;28;20104;-43
2022/01/17 07:14:50;;;;;;;57.47;16.48;;;;;;;2.71;100.00;103244.59;5016894;28;20033;-48
2022/01/17 07:17:15;;;;;;;65.45;17.95;;;;;;;2.69;100.00;103233.22;5017305;28;20388;-46
2022/01/17 07:19:40;;;;;;;48.28;16.15;;;;;;;2.67;100.00;103236.84;5017207;28;20462;-45
2022/01/17 07:22:07;;;;;;;78.40;19.35;;;;;;;2.66;100.00;103235.13;5016888;28;20029;-45
2022/01/17 07:24:34;;;;;;;70.63;18.45;;;;;;;2.69;100.00;103225.31;5017720;28;20414;-45
2022/01/17 07:27:00;;;;;;;59.80;19.42;;;;;;;2.69;100.00;103224.47;5016546;28;20030;-46
2022/01/17 07:29:26;;;;;;;79.50;22.27;;;;;;;2.78;100.00;103230.31;5016160;28;20180;-44
2022/01/17 07:31:52;;;;;;;68.80;22.17;;;;;;;2.76;100.00;103233.91;5007235;28;20030;-45
2022/01/17 07:34:17;;;;;;;70.10;21.65;;;;;;;2.77;100.00;103254.97;5010485;28;20454;-45
2022/01/17 07:36:43;;;;;;;84.13;22.40;;;;;;;2.79;100.00;103247.00;5017393;28;20013;-44
2022/01/17 07:39:09;;;;;;;78.38;22.17;;;;;;;2.77;100.00;103254.09;5022422;28;20060;-45
2022/01/17 07:41:35;;;;;;;74.00;21.17;;;;;;;2.70;100.00;103252.56;5036665;28;20079;-43
2022/01/17 07:44:04;;;;;;;76.70;21.63;;;;;;;2.75;100.00;103277.91;5012650;28;20496;-45
2022/01/17 07:49:10;;;;;;;84.72;24.50;;;;;;;2.76;100.00;103274.34;4997560;28;20030;-48
2022/01/17 07:51:40;;;;;;;84.88;23.10;;;;;;;2.82;100.00;103277.69;5006057;28;20250;-49
2022/01/17 07:54:08;;;;;;;87.20;22.98;;;;;;;2.83;100.00;103282.06;4997864;28;20040;-48
2022/01/17 07:56:34;;;;;;;79.38;22.85;;;;;;;2.84;100.00;103281.16;5016039;28;20029;-48
2022/01/17 07:59:00;;;;;;;90.30;24.33;;;;;;;2.87;100.00;103292.47;5015533;28;20025;-46
2022/01/17 08:01:26;;;;;;;91.90;25.20;;;;;;;2.93;100.00;103289.59;5016439;28;20463;-46
2022/01/17 08:03:51;;;;;;;81.03;23.50;;;;;;;2.97;100.00;103280.69;5016503;28;20021;-48
2022/01/17 08:06:16;;;;;;;79.15;24.65;;;;;;;2.96;100.00;103292.16;5017150;28;20025;-45
2022/01/17 08:08:42;;;;;;;85.93;24.10;;;;;;;2.99;100.00;103292.06;5016035;28;20045;-45
2022/01/17 08:11:07;;;;;;;84.25;27.23;;;;;;;3.01;100.00;103293.78;5015768;28;20022;-48
2022/01/17 08:13:32;;;;;;;83.75;25.17;;;;;;;3.12;100.00;103305.72;5014865;28;20116;-43
2022/01/17 08:15:58;;;;;;;86.10;27.13;;;;;;;3.26;100.00;103299.97;5016252;28;20025;-43
2022/01/17 08:18:23;;;;;;;104.18;29.15;;;;;;;3.39;100.00;103299.53;5015639;28;20171;-44
2022/01/17 08:20:48;;;;;;;86.78;26.25;;;;;;;3.52;100.00;103311.41;5015827;28;20035;-44
2022/01/17 08:23:14;;;;;;;93.20;27.17;;;;;;;3.61;100.00;103320.78;5016617;28;20025;-44
2022/01/17 08:25:39;;;;;;;74.78;25.65;;;;;;;3.67;100.00;103308.22;5018100;28;20036;-44
2022/01/17 08:28:05;;;;;;;87.38;26.63;;;;;;;3.73;100.00;103299.19;5019738;28;20456;-43
2022/01/17 08:30:32;;;;;;;96.45;30.25;;;;;;;3.79;100.00;103306.03;5040330;28;20438;-45
2022/01/17 08:32:58;;;;;;;76.13;26.65;;;;;;;3.86;100.00;103310.19;5039631;28;20037;-46
2022/01/17 08:35:24;;;;;;;84.72;26.92;;;;;;;3.91;100.00;103306.44;5040454;28;20029;-46
2022/01/17 08:37:50;;;;;;;82.80;24.70;;;;;;;3.96;100.00;103310.72;5040755;28;20447;-49
2022/01/17 08:40:16;;;;;;;84.35;27.40;;;;;;;3.98;100.00;103309.72;5040756;28;20021;-49
2022/01/17 08:42:42;;;;;;;82.20;24.30;;;;;;;4.03;100.00;103307.75;5038941;28;20044;-46
2022/01/17 08:45:11;;;;;;;79.43;28.08;;;;;;;4.06;100.00;103302.38;5040497;28;20032;-45
2022/01/17 08:47:37;;;;;;;83.68;24.85;;;;;;;4.10;100.00;103284.59;5021353;28;20078;-44
2022/01/17 08:50:04;;;;;;;78.25;25.13;;;;;;;4.16;100.00;103291.44;5040952;28;20095;-47
2022/01/17 08:52:30;;;;;;;76.15;24.52;;;;;;;4.17;100.00;103296.66;5039909;28;20139;-46
2022/01/17 08:54:55;;;;;;;67.38;20.90;;;;;;;4.19;100.00;103302.78;5040252;28;20150;-44
2022/01/17 08:57:21;;;;;;;77.15;23.65;;;;;;;4.20;100.00;103306.28;5039143;28;20374;-44
2022/01/17 08:59:46;;;;;;;75.07;22.42;;;;;;;4.23;100.00;103298.22;5039465;28;20322;-45
2022/01/17 09:02:13;;;;;;;73.15;21.65;;;;;;;4.26;100.00;103309.53;5039749;28;20051;-45
2022/01/17 09:04:41;;;;;;;82.70;22.25;;;;;;;4.30;100.00;103313.78;5022133;28;20056;-44
2022/01/17 09:07:11;;;;;;;67.20;19.55;;;;;;;4.32;100.00;103319.03;5040049;28;20025;-44
2022/01/17 09:09:40;;;;;;;70.85;22.65;;;;;;;4.36;100.00;103320.66;5038919;28;20441;-45
2022/01/17 09:12:08;;;;;;;61.85;20.45;;;;;;;4.39;100.00;103322.28;5039937;28;20021;-45
2022/01/17 09:14:34;;;;;;;84.85;23.23;;;;;;;4.39;100.00;103328.44;5039035;28;20498;-44
2022/01/17 09:17:00;;;;;;;58.38;21.60;;;;;;;4.42;100.00;103336.25;5021579;28;20021;-48
2022/01/17 09:19:27;;;;;;;64.82;21.38;;;;;;;4.52;100.00;103346.50;5027665;28;20487;-49
2022/01/17 09:21:52;;;;;;;75.43;21.05;;;;;;;4.56;100.00;103348.09;5019603;28;20031;-48
2022/01/17 09:24:17;;;;;;;61.63;19.80;;;;;;;4.58;100.00;103352.44;5019781;28;20025;-48
2022/01/17 09:26:44;;;;;;;73.38;21.70;;;;;;;4.61;100.00;103346.97;5019444;28;20037;-46
2022/01/17 09:29:10;;;;;;;69.90;18.48;;;;;;;4.64;100.00;103348.66;5018576;28;20508;-47
2022/01/17 09:31:35;;;;;;;61.65;19.33;;;;;;;4.67;100.00;103341.47;5019258;28;20029;-49
2022/01/17 09:34:00;;;;;;;60.45;17.92;;;;;;;4.69;100.00;103336.09;5019355;28;20033;-48
2022/01/17 09:36:29;;;;;;;65.18;18.73;;;;;;;4.71;100.00;103342.19;4990914;28;20026;-49
2022/01/17 09:38:55;;;;;;;61.03;18.52;;;;;;;4.73;100.00;103347.44;5008373;28;20029;-47
2022/01/17 09:41:20;;;;;;;60.55;17.73;;;;;;;4.74;100.00;103347.38;5010510;28;20098;-49
2022/01/17 09:43:45;;;;;;;70.60;18.13;;;;;;;4.77;100.00;103351.66;4998528;28;20695;-49
2022/01/17 09:46:11;;;;;;;47.42;15.13;;;;;;;4.79;100.00;103363.94;5019634;28;20025;-48
2022/01/17 09:48:39;;;;;;;51.28;14.43;;;;;;;4.81;100.00;103377.13;5018147;28;20022;-49
2022/01/17 09:51:20;;;;;;;54.83;17.02;;;;;;;4.84;100.00;103383.16;5019529;28;20056;-47
2022/01/17 09:53:50;;;;;;;63.60;17.30;;;;;;;4.84;100.00;103392.88;5016391;28;20460;-45
2022/01/17 09:56:18;;;;;;;58.67;15.48;;;;;;;4.86;100.00;103398.97;5008665;28;20048;-46
2022/01/17 09:58:43;;;;;;;59.25;15.98;;;;;;;4.87;100.00;103395.38;5016565;28;20048;-46
2022/01/17 10:01:09;;;;;;;65.03;17.70;;;;;;;4.88;100.00;103404.22;5019600;28;20079;-46
2022/01/17 10:03:34;;;;;;;59.85;14.23;;;;;;;4.91;100.00;103412.03;5018758;28;20053;-45
2022/01/17 10:06:00;;;;;;;61.65;13.88;;;;;;;4.91;100.00;103381.13;5018859;28;20517;-45
2022/01/17 10:08:27;;;;;;;60.70;13.45;;;;;;;4.95;100.00;103387.16;5014951;28;20041;-47
2022/01/17 10:10:59;;;;;;;55.58;13.10;;;;;;;4.96;100.00;103388.88;5008912;28;20021;-48
2022/01/17 10:13:29;;;;;;;49.92;13.15;;;;;;;5.00;100.00;103387.81;5014393;28;20346;-46
2022/01/17 10:16:11;;;;;;;57.08;13.50;;;;;;;5.02;100.00;103396.56;5015862;28;20033;-45
2022/01/17 10:19:00;;;;;;;56.03;13.35;;;;;;;5.04;100.00;103403.53;5008935;28;20037;-46
2022/01/17 10:21:48;;;;;;;52.17;11.63;;;;;;;5.07;100.00;103402.53;5018727;28;20033;-48
2022/01/17 10:24:22;;;;;;;42.53;10.77;;;;;;;5.12;100.00;103389.13;5017907;28;20037;-48
2022/01/17 10:27:13;;;;;;;56.10;11.68;;;;;;;5.13;100.00;103407.59;5017767;28;20025;-47
2022/01/17 10:35:33;;;;;;;60.70;10.68;;;;;;;5.25;100.00;103403.59;5018189;28;20039;-45
2022/01/17 10:38:08;;;;;;;53.95;9.55;;;;;;;5.30;100.00;103422.81;5018239;28;20040;-47
2022/01/17 10:40:37;;;;;;;51.05;10.45;;;;;;;5.34;100.00;103415.59;5000016;28;20025;-47
2022/01/17 10:43:05;;;;;;;56.03;10.65;;;;;;;5.35;100.00;103427.94;5016459;28;20048;-47
2022/01/17 10:45:38;;;;;;;45.97;9.93;;;;;;;5.38;100.00;103414.53;5018486;28;20648;-46
2022/01/17 10:48:05;;;;;;;55.42;9.65;;;;;;;5.40;100.00;103418.84;5018206;28;20324;-47
2022/01/17 10:50:33;;;;;;;54.92;10.50;;;;;;;5.45;100.00;103421.31;5018265;28;20033;-47
2022/01/17 10:53:02;;;;;;;49.15;9.50;;;;;;;5.48;100.00;103407.94;5014071;28;20274;-46
2022/01/17 10:55:33;;;;;;;51.13;9.77;;;;;;;5.51;100.00;103413.09;5007405;28;20021;-45
2022/01/17 10:58:11;;;;;;;47.10;8.68;;;;;;;5.56;100.00;103429.66;5008819;28;20306;-44
2022/01/17 11:00:48;;;;;;;50.90;9.18;;;;;;;5.54;100.00;103420.91;5018000;28;20021;-48
2022/01/17 11:03:16;;;;;;;54.33;9.45;;;;;;;5.60;100.00;103436.56;5017395;28;20116;-45
2022/01/17 11:05:45;;;;;;;41.08;8.50;;;;;;;5.65;100.00;103436.41;5017931;28;20451;-44
2022/01/17 11:08:12;;;;;;;55.88;9.20;;;;;;;5.70;100.00;103436.19;5017901;28;20545;-46
2022/01/17 11:10:43;;;;;;;54.65;9.55;;;;;;;5.70;100.00;103452.09;5017611;28;20324;-49
2022/01/17 11:13:11;;;;;;;39.83;9.15;;;;;;;5.72;100.00;103458.19;5015261;28;20056;-47
2022/01/17 11:15:38;;;;;;;54.15;8.32;;;;;;;5.77;100.00;103453.53;5017995;28;20115;-46
2022/01/17 11:18:18;;;;;;;44.78;7.97;;;;;;;5.78;100.00;103442.03;5004561;28;20088;-47
2022/01/17 11:20:44;;;;;;;48.83;9.00;;;;;;;5.83;100.00;103453.28;4999978;28;20136;-47
2022/01/17 11:23:09;;;;;;;53.67;9.40;;;;;;;5.89;100.00;103439.78;4997267;28;20028;-47
2022/01/17 11:25:37;;;;;;;49.42;8.70;;;;;;;5.92;100.00;103431.69;4997796;28;20416;-48
2022/01/17 11:28:04;;;;;;;47.33;8.25;;;;;;;5.97;100.00;103439.47;4996694;28;20151;-47
2022/01/17 11:30:31;;;;;;;44.78;7.97;;;;;;;6.02;100.00;103439.28;4997755;28;20022;-48
2022/01/17 11:32:57;;;;;;;59.42;8.55;;;;;;;6.03;100.00;103425.09;4997379;28;20152;-44
2022/01/17 11:35:24;;;;;;;42.30;8.05;;;;;;;6.09;100.00;103428.34;4996317;28;20046;-47
2022/01/17 11:37:53;;;;;;;49.70;7.97;;;;;;;6.15;100.00;103421.88;4996916;28;20026;-49
2022/01/17 11:40:27;;;;;;;46.38;8.43;;;;;;;6.20;100.00;103425.19;4998118;28;20289;-50